tititudorancea.com
Station Historical Data
Daily Summary for March 15, 2018 Units:  Metric    English   Both
« Previous Day
Next Day »
Daily Weekly Monthly Yearly Custom
  High: Low: Average:
Temperature: -17.8 °C 8.2 °C 14.2 °C
Dew Point: -17.8 °C 6.6 °C 8.8 °C
Humidity: Humidity % 42 % 72 %
Wind Speed: 0 km/h 0 km/h 7.9 km/h
Wind Gust: 0 km/h - -
Wind:- - WSW
Pressure: 0 hPa 1013.1 hPa -
Precipitation: 0 mm    
Historical Graphs
 
 
Ararat weather Find more about Weather in Ararat, AU


 



 


Tabular Data for March 15, 2018
Time Temperature Dew Point Pressure Wind Wind Speed Wind Gust Humidity Rainfall Rate (Hourly)
-17.8 °C -17.8 °C 0 hPa Calm     Humidity % 0 mm
00:00 11.8 °C 8.4 °C 1014.8 hPa North 2.6 km/h 7.4 km/h 80 % 0 mm
00:05 11.8 °C 8.4 °C 1014.8 hPa North 5.8 km/h 9.3 km/h 80 % 0 mm
00:10 11.7 °C 8.4 °C 1014.8 hPa North 6.6 km/h 9.3 km/h 80 % 0 mm
00:15 11.7 °C 8.5 °C 1014.8 hPa North 6.1 km/h 16.7 km/h 81 % 0 mm
00:20 11.6 °C 8.4 °C 1014.8 hPa North 6.1 km/h 13 km/h 81 % 0 mm
00:25 11.6 °C 8.4 °C 1014.8 hPa South 8 km/h 11.1 km/h 81 % 0 mm
00:30 11.4 °C 8.3 °C 1014.8 hPa North 7.2 km/h 13 km/h 81 % 0 mm
00:35 11.4 °C 8.4 °C 1014.8 hPa South 8.9 km/h 11.1 km/h 82 % 0 mm
00:40 11.3 °C 8.4 °C 1014.8 hPa South 8.4 km/h 11.1 km/h 82 % 0 mm
00:45 11.3 °C 8.3 °C 1014.8 hPa North 7.6 km/h 14.8 km/h 82 % 0 mm
00:50 11.2 °C 8.3 °C 1014.8 hPa South 6.4 km/h 7.4 km/h 82 % 0 mm
00:55 11.2 °C 8.2 °C 1014.8 hPa South 10.3 km/h 13 km/h 82 % 0 mm
01:00 11.1 °C 8.3 °C 1014.4 hPa North 7.2 km/h 7.4 km/h 83 % 0 mm
01:05 11.1 °C 8.3 °C 1014.4 hPa South 4.7 km/h 7.4 km/h 83 % 0 mm
01:10 11 °C 8.2 °C 1014.1 hPa South 6.9 km/h 12.9 km/h 83 % 0 mm
01:15 10.9 °C 8.1 °C 1014.1 hPa South 7.4 km/h 13 km/h 83 % 0 mm
01:20 10.8 °C 8.2 °C 1014.4 hPa North 6.9 km/h 9.7 km/h 84 % 0 mm
01:25 10.8 °C 8.2 °C 1014.1 hPa South 6.8 km/h 9.3 km/h 84 % 0 mm
01:30 10.8 °C 8.2 °C 1014.1 hPa North 3.9 km/h 5.6 km/h 84 % 0 mm
01:35 10.7 °C 8.1 °C 1014.1 hPa North 7.1 km/h 9.3 km/h 84 % 0 mm
01:40 10.7 °C 8.1 °C 1014.1 hPa North 5.5 km/h 7.4 km/h 84 % 0 mm
01:45 10.7 °C 8.1 °C 1013.8 hPa South 5.8 km/h 7.4 km/h 84 % 0 mm
01:50 10.7 °C 8.1 °C 1013.8 hPa North 4.3 km/h 5.6 km/h 84 % 0 mm
01:55 10.8 °C 8.2 °C 1013.8 hPa North 6.1 km/h 8 km/h 84 % 0 mm
02:00 10.8 °C 8.3 °C 1013.8 hPa North 6.4 km/h 8 km/h 85 % 0 mm
02:05 10.8 °C 8.2 °C 1013.8 hPa South 4.7 km/h 7.4 km/h 84 % 0 mm
02:10 10.9 °C 8.3 °C 1013.8 hPa North 3.1 km/h 5.6 km/h 84 % 0 mm
02:15 10.9 °C 8.3 °C 1013.8 hPa North 3.5 km/h 5.6 km/h 84 % 0 mm
02:20 10.9 °C 8.3 °C 1013.8 hPa North 6.3 km/h 9.7 km/h 84 % 0 mm
02:25 10.9 °C 8.3 °C 1013.8 hPa South 6 km/h 8 km/h 84 % 0 mm
02:30 10.9 °C 8.3 °C 1013.8 hPa South 3.5 km/h 5.6 km/h 84 % 0 mm
02:35 10.8 °C 8.2 °C 1013.8 hPa North 9 km/h 13 km/h 84 % 0 mm
02:40 10.8 °C 8.2 °C 1013.8 hPa South 6.1 km/h 9.7 km/h 84 % 0 mm
02:45 10.8 °C 8.2 °C 1013.4 hPa South 7.1 km/h 13 km/h 84 % 0 mm
02:50 10.8 °C 8.2 °C 1013.4 hPa North 4 km/h 8 km/h 84 % 0 mm
02:55 10.8 °C 8.2 °C 1013.8 hPa North 6.1 km/h 9.3 km/h 84 % 0 mm
03:00 10.8 °C 8.3 °C 1013.4 hPa North 6.9 km/h 9.7 km/h 85 % 0 mm
03:05 10.7 °C 8.3 °C 1013.4 hPa South 7.1 km/h 9.7 km/h 85 % 0 mm
03:10 10.7 °C 8.3 °C 1013.4 hPa South 4.2 km/h 7.4 km/h 85 % 0 mm
03:15 10.7 °C 8.3 °C 1013.4 hPa North 7.4 km/h 13 km/h 85 % 0 mm
03:20 10.7 °C 8.2 °C 1013.4 hPa North 6.6 km/h 11.1 km/h 85 % 0 mm
03:25 10.7 °C 8.2 °C 1013.1 hPa South 6.4 km/h 11.3 km/h 85 % 0 mm
03:30 10.6 °C 8.2 °C 1013.4 hPa North 6 km/h 11.1 km/h 85 % 0 mm
03:35 10.6 °C 8.1 °C 1013.4 hPa South 7.4 km/h 9.7 km/h 85 % 0 mm
03:40 10.6 °C 8.4 °C 1013.4 hPa North 5.3 km/h 9.3 km/h 86 % 0 mm
03:45 10.5 °C 8.1 °C 1013.8 hPa North 8.9 km/h 13 km/h 85 % 0 mm
03:50 10.4 °C 8.2 °C 1013.4 hPa SSW 8.2 km/h 13 km/h 86 % 0 mm
03:55 10.3 °C 8.1 °C 1013.4 hPa SSW 10.6 km/h 13 km/h 86 % 0 mm
04:00 10.3 °C 8.1 °C 1013.4 hPa North 6.3 km/h 9.7 km/h 86 % 0 mm
04:05 10.2 °C 8 °C 1013.4 hPa SSW 5.6 km/h 7.4 km/h 86 % 0 mm
04:10 10.2 °C 8.2 °C 1013.4 hPa North 4.8 km/h 5.6 km/h 87 % 0 mm
04:15 10.2 °C 8.2 °C 1013.4 hPa SSW 5.5 km/h 7.4 km/h 87 % 0 mm
04:20 10.3 °C 8.2 °C 1013.4 hPa SSW 4.5 km/h 8 km/h 87 % 0 mm
04:25 10.2 °C 8.2 °C 1013.4 hPa SSW 6.3 km/h 9.3 km/h 87 % 0 mm
04:30 10.2 °C 8.2 °C 1013.4 hPa North 4.5 km/h 7.4 km/h 87 % 0 mm
04:35 10.2 °C 8.2 °C 1013.4 hPa SSW 3.5 km/h 5.6 km/h 87 % 0 mm
04:40 10.1 °C 7.8 °C 1013.4 hPa North 5 km/h 6.4 km/h 86 % 0 mm
04:45 9.9 °C 7.7 °C 1013.4 hPa North 2.4 km/h 5.6 km/h 86 % 0 mm
04:50 9.6 °C 7.4 °C 1013.4 hPa SSW 3.2 km/h 5.6 km/h 86 % 0 mm
04:55 9.3 °C 7.1 °C 1013.4 hPa North 6 km/h 7.4 km/h 86 % 0 mm
05:00 9 °C 6.9 °C 1013.4 hPa North 2.3 km/h 5.6 km/h 87 % 0 mm
05:05 8.8 °C 6.7 °C 1013.4 hPa SSW 3.1 km/h 5.6 km/h 87 % 0 mm
05:10 8.6 °C 6.6 °C 1013.4 hPa North 3.2 km/h 5.6 km/h 87 % 0 mm
05:15 8.5 °C 6.6 °C 1013.4 hPa North 3.4 km/h 5.6 km/h 88 % 0 mm
05:20 8.4 °C 6.7 °C 1013.4 hPa SSW 1.6 km/h 3.7 km/h 89 % 0 mm
05:25 8.4 °C 6.7 °C 1013.4 hPa North 3.5 km/h 5.6 km/h 89 % 0 mm
05:30 8.4 °C 6.7 °C 1013.4 hPa Calm   1.9 km/h 89 % 0 mm
05:35 8.4 °C 6.7 °C 1013.4 hPa SSW 0.6 km/h 3.7 km/h 89 % 0 mm
05:40 8.4 °C 6.8 °C 1013.1 hPa North 3.5 km/h 5.6 km/h 90 % 0 mm
05:45 8.4 °C 6.9 °C 1013.1 hPa North 2.3 km/h 4.8 km/h 90 % 0 mm
05:50 8.4 °C 6.9 °C 1013.1 hPa North 2.7 km/h 5.6 km/h 90 % 0 mm
05:55 8.4 °C 6.8 °C 1013.4 hPa SSW 5 km/h 7.4 km/h 90 % 0 mm
06:00 8.4 °C 7 °C 1013.4 hPa North 5.1 km/h 6.4 km/h 91 % 0 mm
06:05 8.4 °C 7 °C 1013.4 hPa SSW 4.8 km/h 5.6 km/h 91 % 0 mm
06:10 8.4 °C 7 °C 1013.4 hPa North 2.7 km/h 5.6 km/h 91 % 0 mm
06:15 8.5 °C 7.1 °C 1013.4 hPa North 4.2 km/h 7.4 km/h 91 % 0 mm
06:20 8.7 °C 7.3 °C 1013.4 hPa North 5.1 km/h 8 km/h 91 % 0 mm
06:25 8.9 °C 7.7 °C 1013.4 hPa SSW 5.8 km/h 8 km/h 92 % 0 mm
06:30 9 °C 7.6 °C 1013.8 hPa North 2.1 km/h 5.6 km/h 91 % 0 mm
06:35 9.1 °C 7.7 °C 1013.8 hPa SSW 3.1 km/h 6.4 km/h 91 % 0 mm
06:40 9.2 °C 7.8 °C 1013.8 hPa North 2.1 km/h 3.7 km/h 91 % 0 mm
06:45 9.1 °C 7.6 °C 1013.8 hPa SSW 3.1 km/h 5.6 km/h 90 % 0 mm
06:50 9 °C 7.4 °C 1013.8 hPa Calm     90 % 0 mm
06:55 8.9 °C 7.3 °C 1013.8 hPa North 2.1 km/h 3.7 km/h 90 % 0 mm
07:00 8.7 °C 7.2 °C 1013.8 hPa SSW 2.4 km/h 5.6 km/h 90 % 0 mm
07:05 8.7 °C 7.3 °C 1013.8 hPa SSW 3.9 km/h 5.6 km/h 91 % 0 mm
07:10 8.6 °C 7.1 °C 1013.8 hPa North 4.7 km/h 5.6 km/h 90 % 0 mm
07:15 8.5 °C 6.9 °C 1013.8 hPa North 3.7 km/h 6.4 km/h 90 % 0 mm
07:20 8.4 °C 6.8 °C 1013.8 hPa SSW 2.9 km/h 5.6 km/h 90 % 0 mm
07:25 8.3 °C 6.9 °C 1013.8 hPa SSW 0.5 km/h 3.7 km/h 91 % 0 mm
07:30 8.3 °C 6.9 °C 1013.8 hPa SSW 3.2 km/h 5.6 km/h 91 % 0 mm
07:35 8.3 °C 6.9 °C 1013.8 hPa North 3.1 km/h 5.6 km/h 91 % 0 mm
07:40 8.4 °C 7 °C 1013.8 hPa North 3.9 km/h 6.4 km/h 91 % 0 mm
07:45 8.3 °C 6.9 °C 1013.8 hPa SSW 2.6 km/h 5.6 km/h 91 % 0 mm
07:50 8.3 °C 6.9 °C 1013.8 hPa SSW 1.6 km/h 3.7 km/h 91 % 0 mm
07:55 8.2 °C 6.8 °C 1013.8 hPa North 3.1 km/h 5.6 km/h 91 % 0 mm
08:00 8.2 °C 6.8 °C 1014.1 hPa SSW 2.3 km/h 5.6 km/h 91 % 0 mm
08:05 8.2 °C 6.8 °C 1014.1 hPa North 3.7 km/h 5.6 km/h 91 % 0 mm
08:10 8.3 °C 7.1 °C 1014.1 hPa North 3.7 km/h 5.6 km/h 92 % 0 mm
08:15 8.4 °C 7.2 °C 1014.1 hPa SSW 4.5 km/h 5.6 km/h 92 % 0 mm
08:20 8.6 °C 7.4 °C 1014.1 hPa Calm     92 % 0 mm
08:25 8.8 °C 7.6 °C 1014.1 hPa SSW 2.1 km/h 5.6 km/h 92 % 0 mm
08:30 9.1 °C 7.8 °C 1013.8 hPa North 2.4 km/h 5.6 km/h 92 % 0 mm
08:35 9.4 °C 8.2 °C 1014.1 hPa North 3.9 km/h 6.4 km/h 92 % 0 mm
08:40 9.7 °C 8.4 °C 1014.1 hPa North 3.7 km/h 5.6 km/h 92 % 0 mm
08:45 9.9 °C 8.7 °C 1014.1 hPa North 3.7 km/h 3.7 km/h 92 % 0 mm
08:50 10.2 °C 8.8 °C 1014.1 hPa North 2.7 km/h 5.6 km/h 91 % 0 mm
08:55 10.4 °C 8.9 °C 1014.1 hPa SSW 2.9 km/h 5.6 km/h 90 % 0 mm
09:00 10.8 °C 9.2 °C 1014.1 hPa SSW 5.1 km/h 7.4 km/h 90 % 0 mm
09:05 11.1 °C 9.4 °C 1014.1 hPa SSW 3.9 km/h 5.6 km/h 89 % 0 mm
09:10 11.6 °C 9.6 °C 1014.1 hPa North 2.9 km/h 5.6 km/h 88 % 0 mm
09:15 12 °C 9.9 °C 1014.1 hPa North 2.6 km/h 5.6 km/h 87 % 0 mm
09:20 12.4 °C 9.9 °C 1013.8 hPa North 2.4 km/h 5.6 km/h 85 % 0 mm
09:25 12.6 °C 9.7 °C 1014.1 hPa SSW 3.4 km/h 7.4 km/h 83 % 0 mm
09:30 12.7 °C 9.7 °C 1013.8 hPa SSW 1.3 km/h 4.8 km/h 82 % 0 mm
09:35 12.8 °C 9.7 °C 1014.1 hPa SSW 7.1 km/h 9.3 km/h 81 % 0 mm
09:40 12.9 °C 9.6 °C 1014.1 hPa North 6.8 km/h 9.3 km/h 80 % 0 mm
09:45 13.1 °C 9.7 °C 1014.1 hPa North 9 km/h 13 km/h 80 % 0 mm
09:50 13.2 °C 9.7 °C 1014.4 hPa SSW 8.9 km/h 11.1 km/h 79 % 0 mm
09:55 13.4 °C 9.8 °C 1014.4 hPa SSW 7.2 km/h 11.1 km/h 79 % 0 mm
10:00 13.6 °C 9.8 °C 1014.4 hPa North 6.3 km/h 8 km/h 78 % 0 mm
10:05 13.7 °C 9.9 °C 1014.8 hPa SSW 14 km/h 20.4 km/h 78 % 0 mm
10:10 13.7 °C 9.8 °C 1014.8 hPa SSW 10.3 km/h 14.8 km/h 77 % 0 mm
10:15 13.8 °C 9.8 °C 1014.8 hPa SSW 8.9 km/h 9.3 km/h 77 % 0 mm
10:20 13.7 °C 9.8 °C 1014.8 hPa SSW 8.2 km/h 9.3 km/h 77 % 0 mm
10:25 13.8 °C 9.9 °C 1014.8 hPa SSW 8.7 km/h 16.7 km/h 77 % 0 mm
10:30 13.9 °C 9.7 °C 1015.1 hPa North 11.4 km/h 14.8 km/h 76 % 0 mm
10:35 14.1 °C 9.9 °C 1015.1 hPa SSW 6.9 km/h 11.1 km/h 76 % 0 mm
10:40 14.3 °C 9.9 °C 1015.1 hPa SSW 7.7 km/h 13 km/h 75 % 0 mm
10:45 14.6 °C 10.2 °C 1014.8 hPa SSW 9 km/h 16.7 km/h 75 % 0 mm
10:50 14.7 °C 10.1 °C 1014.8 hPa SSW 10.3 km/h 14.8 km/h 74 % 0 mm
10:55 14.7 °C 10.1 °C 1015.1 hPa SSW 11.9 km/h 14.8 km/h 74 % 0 mm
11:00 14.7 °C 10.3 °C 1015.1 hPa North 4.5 km/h 6.4 km/h 75 % 0 mm
11:05 14.8 °C 10 °C 1014.8 hPa SSE 7.9 km/h 11.1 km/h 73 % 0 mm
11:10 14.8 °C 10 °C 1014.8 hPa SSE 10.3 km/h 13 km/h 73 % 0 mm
11:15 14.7 °C 9.7 °C 1015.1 hPa SSE 9.2 km/h 13 km/h 72 % 0 mm
11:20 14.7 °C 9.9 °C 1015.1 hPa SSE 6.3 km/h 9.3 km/h 73 % 0 mm
11:25 14.7 °C 9.7 °C 1014.8 hPa South 11.7 km/h 22.2 km/h 72 % 0 mm
11:30 14.7 °C 9.9 °C 1015.1 hPa South 7.4 km/h 18.5 km/h 73 % 0 mm
11:35 14.8 °C 9.8 °C 1015.1 hPa North 5.5 km/h 5.6 km/h 72 % 0 mm
11:40 15 °C 9.8 °C 1015.1 hPa South 11.4 km/h 18.5 km/h 71 % 0 mm
11:45 15.1 °C 9.8 °C 1014.8 hPa North 11.1 km/h 13 km/h 71 % 0 mm
11:50 15.3 °C 9.8 °C 1014.8 hPa SSE 11.1 km/h 16.7 km/h 70 % 0 mm
11:55 15.3 °C 9.8 °C 1014.8 hPa SSW 12.7 km/h 12.7 km/h 70 % 0 mm
12:00 15.3 °C 9.9 °C 1014.8 hPa North 7.6 km/h 13 km/h 70 % 0 mm
12:05 15.4 °C 9.8 °C 1015.1 hPa North 10.5 km/h 13 km/h 69 % 0 mm
12:10 15.4 °C 9.7 °C 1014.8 hPa South 10.6 km/h 14.8 km/h 69 % 0 mm
12:15 15.6 °C 9.9 °C 1014.8 hPa North 12.6 km/h 18.5 km/h 69 % 0 mm
12:20 15.8 °C 10.2 °C 1014.4 hPa SSE 9.7 km/h 18.5 km/h 69 % 0 mm
12:25 16.4 °C 10.2 °C 1014.1 hPa South 9.5 km/h 16.1 km/h 67 % 0 mm
12:30 16.6 °C 10.2 °C 1014.1 hPa SSE 13.5 km/h 20.4 km/h 66 % 0 mm
12:35 16.6 °C 9.9 °C 1014.1 hPa North 14.2 km/h 18.5 km/h 65 % 0 mm
12:40 16.5 °C 9.9 °C 1014.1 hPa South 16.1 km/h 18.5 km/h 65 % 0 mm
12:45 16.7 °C 9.8 °C 1014.1 hPa South 17.4 km/h 31.5 km/h 64 % 0 mm
12:50 16.6 °C 9.6 °C 1014.1 hPa South 20.9 km/h 27.4 km/h 63 % 0 mm
12:55 16.7 °C 9.3 °C 1014.4 hPa SSE 22.5 km/h 31.5 km/h 62 % 0 mm
13:00 16.9 °C 9.6 °C 1014.4 hPa SSW 14.5 km/h 18.5 km/h 62 % 0 mm
13:05 17.3 °C 9.7 °C 1014.8 hPa South 10.1 km/h 18.5 km/h 61 % 0 mm
13:10 17.5 °C 9.4 °C 1014.8 hPa SSE 11.1 km/h 16.7 km/h 59 % 0 mm
13:15 17.7 °C 9.6 °C 1014.4 hPa South 10.5 km/h 18.5 km/h 59 % 0 mm
13:20 17.8 °C 9.4 °C 1014.8 hPa South 10.5 km/h 16.1 km/h 58 % 0 mm
13:25 17.8 °C 9.7 °C 1014.4 hPa SSE 7.9 km/h 16.7 km/h 59 % 0 mm
13:30 18.1 °C 9.4 °C 1014.4 hPa SSW 13.2 km/h 20.4 km/h 57 % 0 mm
13:35 18.1 °C 9.4 °C 1014.4 hPa SSW 6.9 km/h 11.1 km/h 57 % 0 mm
13:40 18.5 °C 9.8 °C 1014.4 hPa SSE 8.4 km/h 16.7 km/h 57 % 0 mm
13:45 18.8 °C 9.3 °C 1014.4 hPa South 9 km/h 14.8 km/h 54 % 0 mm
13:50 19 °C 9.2 °C 1014.1 hPa SSE 10.5 km/h 18.5 km/h 53 % 0 mm
13:55 19.1 °C 9.3 °C 1014.1 hPa South 12.1 km/h 22.2 km/h 53 % 0 mm
14:00 19.2 °C 9.3 °C 1014.1 hPa SSE 12.4 km/h 22.5 km/h 53 % 0 mm
14:05 19.1 °C 9.3 °C 1014.1 hPa SSE 8.4 km/h 11.3 km/h 53 % 0 mm
14:10 19.2 °C 9.1 °C 1014.1 hPa North 7.6 km/h 13 km/h 52 % 0 mm
14:15 19.7 °C 9.3 °C 1014.1 hPa WSW 13.8 km/h 18.5 km/h 51 % 0 mm
14:20 19.4 °C 9 °C 1014.1 hPa SSW 8.5 km/h 13 km/h 51 % 0 mm
14:25 19.5 °C 9.4 °C 1014.1 hPa North 12.7 km/h 22.2 km/h 52 % 0 mm
14:30 19.4 °C 9.3 °C 1014.1 hPa SSW 14 km/h 20.9 km/h 52 % 0 mm
14:35 19.4 °C 9.3 °C 1014.1 hPa WSW 5.6 km/h 8 km/h 52 % 0 mm
14:40 19.9 °C 9.2 °C 1014.1 hPa SSE 7.7 km/h 13 km/h 50 % 0 mm
14:45 19.9 °C 8.9 °C 1014.1 hPa SSW 15 km/h 20.4 km/h 49 % 0 mm
14:50 19.8 °C 8.4 °C 1013.8 hPa SSW 12.4 km/h 18.5 km/h 48 % 0 mm
14:55 20 °C 8.7 °C 1013.8 hPa SSW 10.3 km/h 24.1 km/h 48 % 0 mm
15:00 20.3 °C 8.9 °C 1013.8 hPa SSW 18 km/h 22.2 km/h 48 % 0 mm
15:05 20.3 °C 8.9 °C 1013.8 hPa North 11.1 km/h 16.7 km/h 48 % 0 mm
15:10 20.6 °C 9.2 °C 1013.8 hPa SSE 16.6 km/h 19.3 km/h 48 % 0 mm
15:15 20.7 °C 8.6 °C 1013.8 hPa South 11.1 km/h 22.2 km/h 46 % 0 mm
15:20 20.4 °C 9.1 °C 1013.8 hPa North 16.4 km/h 24.1 km/h 48 % 0 mm
15:25 20.1 °C 8.8 °C 1013.8 hPa South 12.9 km/h 18.5 km/h 48 % 0 mm
15:30 20 °C 8.7 °C 1013.8 hPa SSW 11.4 km/h 18.5 km/h 48 % 0 mm
15:35 19.9 °C 8.6 °C 1013.8 hPa SSW 17.4 km/h 22.2 km/h 48 % 0 mm
15:40 20.4 °C 8.4 °C 1013.4 hPa SW 8.7 km/h 14.8 km/h 46 % 0 mm
15:45 21 °C 8.6 °C 1013.8 hPa South 11.3 km/h 16.7 km/h 45 % 0 mm
15:50 21.2 °C 8.5 °C 1013.4 hPa SSW 6.8 km/h 18.5 km/h 44 % 0 mm
15:55 21.3 °C 8.5 °C 1013.4 hPa SSE 11.1 km/h 16.7 km/h 44 % 0 mm
16:00 21.4 °C 8.7 °C 1013.1 hPa SSE 11.9 km/h 20.4 km/h 44 % 0 mm
16:05 21.7 °C 8.9 °C 1013.1 hPa SE 8.4 km/h 13 km/h 44 % 0 mm
16:10 21.7 °C 8.6 °C 1013.4 hPa SSE 8.9 km/h 14.5 km/h 43 % 0 mm
16:15 21.2 °C 8.5 °C 1013.1 hPa SSE 7.6 km/h 16.7 km/h 44 % 0 mm
16:20 21.3 °C 8.2 °C 1013.1 hPa SSE 10.3 km/h 14.8 km/h 43 % 0 mm
16:25 21.1 °C 8.1 °C 1013.1 hPa South 14.2 km/h 20.4 km/h 43 % 0 mm
16:30 21.1 °C 8.4 °C 1013.1 hPa SSE 11.4 km/h 16.7 km/h 44 % 0 mm
16:35 21.2 °C 8.1 °C 1013.1 hPa South 13.4 km/h 18.5 km/h 43 % 0 mm
16:40 20.9 °C 7.9 °C 1013.1 hPa South 13.4 km/h 19.3 km/h 43 % 0 mm
16:45 20.8 °C 7.8 °C 1013.1 hPa SSW 13.4 km/h 18.5 km/h 43 % 0 mm
16:50 21.1 °C 8.4 °C 1013.1 hPa South 11.9 km/h 18.5 km/h 44 % 0 mm
16:55 21.2 °C 7.8 °C 1013.1 hPa WSW 13.8 km/h 16.7 km/h 42 % 0 mm
17:00 21.1 °C 7.7 °C 1013.1 hPa SW 14.8 km/h 18.5 km/h 42 % 0 mm
17:05 21.3 °C 7.8 °C 1013.1 hPa SSW 11.9 km/h 16.7 km/h 42 % 0 mm
17:10 21.4 °C 7.9 °C 1013.1 hPa South 6.6 km/h 16.1 km/h 42 % 0 mm
17:15 21.3 °C 8.2 °C 1013.1 hPa SSW 16.1 km/h 24.1 km/h 43 % 0 mm
17:20 21.2 °C 8.1 °C 1013.1 hPa SSW 14.2 km/h 18.5 km/h 43 % 0 mm
17:25 21.1 °C 8.4 °C 1013.4 hPa South 11.7 km/h 18.5 km/h 44 % 0 mm
17:30 21 °C 8.3 °C 1013.4 hPa SSW 23.8 km/h 31.5 km/h 44 % 0 mm
17:35 21 °C 8.3 °C 1013.4 hPa SSW 3.2 km/h 13 km/h 44 % 0 mm
17:40 21.2 °C 8.4 °C 1013.1 hPa North 10 km/h 13 km/h 44 % 0 mm
17:45 21.3 °C 8.5 °C 1013.4 hPa SE 11.4 km/h 14.8 km/h 44 % 0 mm
17:50 21.3 °C 8.6 °C 1013.4 hPa SSE 11.3 km/h 18.5 km/h 44 % 0 mm
17:55 21.3 °C 8.2 °C 1013.1 hPa SSE 12.2 km/h 18.5 km/h 43 % 0 mm
18:00 21.2 °C 8.4 °C 1013.4 hPa SSW 9.5 km/h 18.5 km/h 44 % 0 mm
18:05 21.1 °C 8.3 °C 1013.4 hPa South 7.1 km/h 14.8 km/h 44 % 0 mm
18:10 20.8 °C 8.1 °C 1013.4 hPa South 8.4 km/h 14.8 km/h 44 % 0 mm
18:15 20.6 °C 8.2 °C 1013.4 hPa South 10.3 km/h 16.7 km/h 45 % 0 mm
18:20 20.5 °C 8.2 °C 1013.4 hPa South 13.2 km/h 18.5 km/h 45 % 0 mm
18:25 20.5 °C 8.5 °C 1013.4 hPa South 14.6 km/h 18.5 km/h 46 % 0 mm
18:30 20.5 °C 8.8 °C 1013.4 hPa SE 17.7 km/h 31.5 km/h 47 % 0 mm
18:35 20.4 °C 8.7 °C 1013.4 hPa South 13.4 km/h 22.2 km/h 47 % 0 mm
18:40 20.2 °C 9.2 °C 1013.8 hPa SE 17.7 km/h 27.8 km/h 49 % 0 mm
18:45 20 °C 9.3 °C 1013.8 hPa South 13 km/h 18.5 km/h 50 % 0 mm
18:50 19.6 °C 10.1 °C 1013.8 hPa North 18.8 km/h 27.8 km/h 54 % 0 mm
18:55 19 °C 10.3 °C 1013.8 hPa South 10.1 km/h 16.7 km/h 57 % 0 mm
19:00 18.7 °C 10.3 °C 1014.1 hPa South 14.2 km/h 25.9 km/h 58 % 0 mm
19:05 18.6 °C 10.4 °C 1014.1 hPa South 11.7 km/h 18.5 km/h 59 % 0 mm
19:10 18.6 °C 10.4 °C 1014.1 hPa South 15 km/h 20.9 km/h 59 % 0 mm
19:15 18.6 °C 10.4 °C 1014.1 hPa SSW 12.7 km/h 20.4 km/h 59 % 0 mm
19:20 18.5 °C 10.3 °C 1014.1 hPa South 13 km/h 24.1 km/h 59 % 0 mm
19:25 18.4 °C 10.3 °C 1014.1 hPa South 7.4 km/h 14.8 km/h 59 % 0 mm
19:30 18.4 °C 10.3 °C 1014.4 hPa South 9.7 km/h 16.7 km/h 59 % 0 mm
19:35 18.3 °C 10.2 °C 1014.4 hPa South 12.7 km/h 24.1 km/h 59 % 0 mm
19:40 18.1 °C 10.4 °C 1014.4 hPa South 17.7 km/h 24.1 km/h 61 % 0 mm
19:45 17.9 °C 10.6 °C 1014.4 hPa SSW 11.7 km/h 14.8 km/h 62 % 0 mm
19:50 17.8 °C 10.4 °C 1014.4 hPa South 6.1 km/h 11.1 km/h 62 % 0 mm
19:55 17.6 °C 10.5 °C 1014.8 hPa South 10.6 km/h 16.7 km/h 63 % 0 mm
20:00 17.5 °C 10.4 °C 1014.8 hPa South 6.3 km/h 11.3 km/h 63 % 0 mm
20:05 17.3 °C 10.4 °C 1014.8 hPa South 8.2 km/h 16.7 km/h 64 % 0 mm
20:10 17.2 °C 10.3 °C 1014.8 hPa South 6.9 km/h 13 km/h 64 % 0 mm
20:15 17 °C 10.4 °C 1015.1 hPa South 7.1 km/h 11.3 km/h 65 % 0 mm
20:20 16.8 °C 10.4 °C 1014.8 hPa South 8.4 km/h 13 km/h 66 % 0 mm
20:25 16.7 °C 10.3 °C 1015.1 hPa South 9.5 km/h 16.7 km/h 66 % 0 mm
20:30 16.5 °C 10.3 °C 1015.1 hPa South 9.2 km/h 13 km/h 67 % 0 mm
20:35 16.4 °C 10.2 °C 1015.1 hPa South 5.1 km/h 7.4 km/h 67 % 0 mm
20:40 16.2 °C 10.1 °C 1015.1 hPa South 5.1 km/h 9.3 km/h 67 % 0 mm
20:45 16.1 °C 10.2 °C 1015.1 hPa South 5.6 km/h 9.3 km/h 68 % 0 mm
20:50 15.9 °C 10.1 °C 1015.1 hPa South 6.4 km/h 9.3 km/h 68 % 0 mm
20:55 15.8 °C 10.2 °C 1015.5 hPa North 4.5 km/h 9.3 km/h 69 % 0 mm
21:00 15.7 °C 10.1 °C 1015.5 hPa South 4.7 km/h 7.4 km/h 69 % 0 mm
21:05 15.6 °C 10.1 °C 1015.8 hPa North 4.5 km/h 6.4 km/h 70 % 0 mm
21:10 15.4 °C 10.2 °C 1015.5 hPa North 6.6 km/h 9.3 km/h 71 % 0 mm
21:15 15.3 °C 10.1 °C 1015.5 hPa South 9.7 km/h 13 km/h 71 % 0 mm
21:20 15.2 °C 10.2 °C 1015.8 hPa South 2.4 km/h 5.6 km/h 72 % 0 mm
21:25 15.1 °C 10.1 °C 1015.8 hPa North 7.1 km/h 11.1 km/h 72 % 0 mm
21:30 15 °C 10.2 °C 1015.8 hPa North 5.8 km/h 9.3 km/h 73 % 0 mm
21:35 14.8 °C 10.2 °C 1015.8 hPa South 6.9 km/h 11.1 km/h 74 % 0 mm
21:40 14.7 °C 10.1 °C 1015.8 hPa South 5.8 km/h 8 km/h 74 % 0 mm
21:45 14.6 °C 10 °C 1016.1 hPa North 6.1 km/h 9.3 km/h 74 % 0 mm
21:50 14.6 °C 10.2 °C 1016.1 hPa South 9.2 km/h 14.8 km/h 75 % 0 mm
21:55 14.4 °C 10.1 °C 1016.1 hPa North 5.5 km/h 11.3 km/h 75 % 0 mm
22:00 14.3 °C 10.2 °C 1016.1 hPa South 6.3 km/h 11.1 km/h 76 % 0 mm
22:05 14.3 °C 10.1 °C 1015.8 hPa North 6.8 km/h 7.4 km/h 76 % 0 mm
22:10 14.2 °C 10.2 °C 1016.1 hPa North 5 km/h 9.3 km/h 77 % 0 mm
22:15 14.1 °C 10.1 °C 1016.1 hPa South 4.5 km/h 9.7 km/h 77 % 0 mm
22:20 13.9 °C 10.2 °C 1016.1 hPa South 6.8 km/h 13 km/h 78 % 0 mm
22:25 13.8 °C 10.1 °C 1016.1 hPa South 8 km/h 13 km/h 78 % 0 mm
22:30 13.8 °C 10 °C 1016.5 hPa North 5 km/h 5.6 km/h 78 % 0 mm
22:35 13.7 °C 10.1 °C 1016.5 hPa South 8.5 km/h 13 km/h 79 % 0 mm
22:40 13.6 °C 10.1 °C 1016.5 hPa South 7.2 km/h 8 km/h 79 % 0 mm
22:45 13.5 °C 9.9 °C 1016.5 hPa North 6 km/h 11.1 km/h 79 % 0 mm
22:50 13.4 °C 10 °C 1016.5 hPa North 7.4 km/h 13 km/h 80 % 0 mm
22:55 13.3 °C 9.9 °C 1016.1 hPa South 5.6 km/h 9.3 km/h 80 % 0 mm
23:00 13.3 °C 9.9 °C 1016.5 hPa North 5.1 km/h 9.7 km/h 80 % 0 mm
23:05 13.2 °C 10.1 °C 1016.1 hPa North 8.4 km/h 13 km/h 81 % 0 mm
23:10 13.2 °C 10 °C 1016.1 hPa North 6.6 km/h 7.4 km/h 81 % 0 mm
23:15 13.1 °C 9.9 °C 1016.1 hPa South 3.7 km/h 7.4 km/h 81 % 0 mm
23:20 12.9 °C 9.8 °C 1016.1 hPa North 4.7 km/h 7.4 km/h 81 % 0 mm
23:25 12.8 °C 9.7 °C 1016.1 hPa North 6.1 km/h 9.3 km/h 81 % 0 mm
23:30 12.8 °C 9.8 °C 1016.1 hPa North 7.2 km/h 11.1 km/h 82 % 0 mm
23:35 12.7 °C 9.7 °C 1016.1 hPa North 6.4 km/h 7.4 km/h 82 % 0 mm
23:40 12.7 °C 9.9 °C 1016.1 hPa South 8.2 km/h 9.3 km/h 83 % 0 mm
23:45 12.7 °C 9.9 °C 1016.1 hPa North 10.1 km/h 14.8 km/h 83 % 0 mm
23:50 12.7 °C 9.9 °C 1016.1 hPa North 7.7 km/h 11.1 km/h 83 % 0 mm
23:55 12.7 °C 9.9 °C 1016.1 hPa North 8 km/h 11.1 km/h 83 % 0 mm
Ararat Weather
Compliments of Weather Underground - 2.25 mb
Click here to send mail.


ABOUT

Live weather data from Ararat, Victoria, Australia, 3377
Data uploaded from Cumulus every 5 minutes to Weather Underground.
This site then downloads the raw data for formatting and display.
Metric and imperial data can be displayed. Graphs and historical data available.
Includes Sun and Moon times and rain image live from BOM.

Check out Ararat Weather on Facebook, Twitter and Google +

Help support ongoing costs by checking out the ads





Follow @AraratWeather